sensor_id;sensor_type;location;lat;lon;timestamp;pressure;altitude;pressure_sealevel;temperature;humidity
68137;BME280;54939;50.826;9.030;2023-03-19T00:00:27;98356.84;;;11.64;68.75
68137;BME280;54939;50.826;9.030;2023-03-19T00:01:01;98355.03;;;11.64;68.52
68137;BME280;54939;50.826;9.030;2023-03-19T00:01:32;98364.72;;;11.65;68.64
68137;BME280;54939;50.826;9.030;2023-03-19T00:02:02;98358.53;;;11.65;68.47
68137;BME280;54939;50.826;9.030;2023-03-19T00:02:32;98353.19;;;11.65;68.81
68137;BME280;54939;50.826;9.030;2023-03-19T00:03:02;98361.19;;;11.65;68.50
68137;BME280;54939;50.826;9.030;2023-03-19T00:03:33;98371.91;;;11.65;68.63
68137;BME280;54939;50.826;9.030;2023-03-19T00:04:03;98376.25;;;11.66;68.70
68137;BME280;54939;50.826;9.030;2023-03-19T00:04:33;98370.91;;;11.66;68.75
68137;BME280;54939;50.826;9.030;2023-03-19T00:05:04;98367.38;;;11.65;68.75
68137;BME280;54939;50.826;9.030;2023-03-19T00:05:34;98372.72;;;11.65;68.63
68137;BME280;54939;50.826;9.030;2023-03-19T00:06:05;98376.25;;;11.66;68.68
68137;BME280;54939;50.826;9.030;2023-03-19T00:06:35;98365.56;;;11.66;68.71
68137;BME280;54939;50.826;9.030;2023-03-19T00:07:05;98365.56;;;11.66;68.42
68137;BME280;54939;50.826;9.030;2023-03-19T00:07:35;98366.38;;;11.66;68.54
68137;BME280;54939;50.826;9.030;2023-03-19T00:08:06;98368.91;;;11.68;68.81
68137;BME280;54939;50.826;9.030;2023-03-19T00:08:36;98369.91;;;11.67;68.60
68137;BME280;54939;50.826;9.030;2023-03-19T00:09:06;98366.38;;;11.66;68.58
68137;BME280;54939;50.826;9.030;2023-03-19T00:09:36;98372.56;;;11.67;68.53
68137;BME280;54939;50.826;9.030;2023-03-19T00:10:07;98366.38;;;11.66;68.47
68137;BME280;54939;50.826;9.030;2023-03-19T00:10:37;98364.56;;;11.67;68.88
68137;BME280;54939;50.826;9.030;2023-03-19T00:11:09;98369.91;;;11.67;68.83
68137;BME280;54939;50.826;9.030;2023-03-19T00:11:39;98366.38;;;11.66;68.75
68137;BME280;54939;50.826;9.030;2023-03-19T00:12:10;98360.19;;;11.66;68.82
68137;BME280;54939;50.826;9.030;2023-03-19T00:12:40;98367.22;;;11.67;68.61
68137;BME280;54939;50.826;9.030;2023-03-19T00:13:11;98361.88;;;11.67;68.60
68137;BME280;54939;50.826;9.030;2023-03-19T00:13:41;98367.22;;;11.67;68.59
68137;BME280;54939;50.826;9.030;2023-03-19T00:14:11;98364.56;;;11.67;68.58
68137;BME280;54939;50.826;9.030;2023-03-19T00:14:41;98377.91;;;11.67;68.81
68137;BME280;54939;50.826;9.030;2023-03-19T00:15:12;98369.06;;;11.66;68.57
68137;BME280;54939;50.826;9.030;2023-03-19T00:15:43;98364.72;;;11.65;68.64
68137;BME280;54939;50.826;9.030;2023-03-19T00:16:13;98375.41;;;11.65;68.76
68137;BME280;54939;50.826;9.030;2023-03-19T00:16:43;98369.91;;;11.67;68.70
68137;BME280;54939;50.826;9.030;2023-03-19T00:17:13;98373.56;;;11.66;68.58
68137;BME280;54939;50.826;9.030;2023-03-19T00:17:44;98369.06;;;11.66;68.61
68137;BME280;54939;50.826;9.030;2023-03-19T00:18:14;98377.91;;;11.67;68.74
68137;BME280;54939;50.826;9.030;2023-03-19T00:18:45;98374.41;;;11.66;68.76
68137;BME280;54939;50.826;9.030;2023-03-19T00:19:15;98369.91;;;11.67;68.46
68137;BME280;54939;50.826;9.030;2023-03-19T00:19:45;98375.41;;;11.65;68.63
68137;BME280;54939;50.826;9.030;2023-03-19T00:20:15;98377.09;;;11.66;68.53
68137;BME280;54939;50.826;9.030;2023-03-19T00:20:47;98371.72;;;11.66;68.47
68137;BME280;54939;50.826;9.030;2023-03-19T00:21:17;98374.41;;;11.66;68.70
68137;BME280;54939;50.826;9.030;2023-03-19T00:21:47;98377.91;;;11.67;68.59
68137;BME280;54939;50.826;9.030;2023-03-19T00:22:17;98377.91;;;11.67;68.48
68137;BME280;54939;50.826;9.030;2023-03-19T00:22:47;98374.41;;;11.66;68.56
68137;BME280;54939;50.826;9.030;2023-03-19T00:23:17;98378.91;;;11.66;68.71
68137;BME280;54939;50.826;9.030;2023-03-19T00:23:48;98376.25;;;11.66;68.69
68137;BME280;54939;50.826;9.030;2023-03-19T00:24:18;98380.59;;;11.67;68.64
68137;BME280;54939;50.826;9.030;2023-03-19T00:24:49;98380.59;;;11.67;68.53
68137;BME280;54939;50.826;9.030;2023-03-19T00:25:19;98379.75;;;11.66;68.44
68137;BME280;54939;50.826;9.030;2023-03-19T00:25:49;98378.91;;;11.66;68.47
68137;BME280;54939;50.826;9.030;2023-03-19T00:26:20;98388.63;;;11.67;68.57
68137;BME280;54939;50.826;9.030;2023-03-19T00:26:50;98383.28;;;11.67;68.38
68137;BME280;54939;50.826;9.030;2023-03-19T00:27:20;98379.59;;;11.68;68.49
68137;BME280;54939;50.826;9.030;2023-03-19T00:27:50;98377.91;;;11.67;68.50
68137;BME280;54939;50.826;9.030;2023-03-19T00:28:21;98386.78;;;11.67;68.69
68137;BME280;54939;50.826;9.030;2023-03-19T00:28:51;98385.94;;;11.67;68.52
68137;BME280;54939;50.826;9.030;2023-03-19T00:29:22;98385.94;;;11.67;68.52
68137;BME280;54939;50.826;9.030;2023-03-19T00:29:52;98384.09;;;11.67;68.70
68137;BME280;54939;50.826;9.030;2023-03-19T00:30:22;98388.63;;;11.67;68.55
68137;BME280;54939;50.826;9.030;2023-03-19T00:30:53;98381.44;;;11.67;68.54
68137;BME280;54939;50.826;9.030;2023-03-19T00:31:23;98385.94;;;11.67;68.58
68137;BME280;54939;50.826;9.030;2023-03-19T00:31:53;98384.09;;;11.67;68.76
68137;BME280;54939;50.826;9.030;2023-03-19T00:32:23;98378.75;;;11.67;68.68
68137;BME280;54939;50.826;9.030;2023-03-19T00:32:54;98368.06;;;11.67;68.50
68137;BME280;54939;50.826;9.030;2023-03-19T00:33:24;98376.09;;;11.67;68.75
68137;BME280;54939;50.826;9.030;2023-03-19T00:33:56;98361.03;;;11.66;68.65
68137;BME280;54939;50.826;9.030;2023-03-19T00:34:26;98361.88;;;11.67;68.78
68137;BME280;54939;50.826;9.030;2023-03-19T00:34:57;98368.06;;;11.67;68.75
68137;BME280;54939;50.826;9.030;2023-03-19T00:35:27;98364.56;;;11.67;68.78
68137;BME280;54939;50.826;9.030;2023-03-19T00:35:57;98361.88;;;11.67;68.59
68137;BME280;54939;50.826;9.030;2023-03-19T00:36:27;98361.03;;;11.66;68.78
68137;BME280;54939;50.826;9.030;2023-03-19T00:36:58;98364.56;;;11.67;68.68
68137;BME280;54939;50.826;9.030;2023-03-19T00:37:28;98360.19;;;11.66;68.38
68137;BME280;54939;50.826;9.030;2023-03-19T00:37:58;98364.88;;;11.64;68.66
68137;BME280;54939;50.826;9.030;2023-03-19T00:38:28;98365.56;;;11.66;68.59
68137;BME280;54939;50.826;9.030;2023-03-19T00:38:59;98363.72;;;11.66;68.63
68137;BME280;54939;50.826;9.030;2023-03-19T00:39:29;98367.22;;;11.67;68.46
68137;BME280;54939;50.826;9.030;2023-03-19T00:39:59;98357.38;;;11.67;68.67
68137;BME280;54939;50.826;9.030;2023-03-19T00:40:29;98353.69;;;11.68;68.71
68137;BME280;54939;50.826;9.030;2023-03-19T00:40:59;98360.03;;;11.67;68.52
68137;BME280;54939;50.826;9.030;2023-03-19T00:41:30;98366.22;;;11.68;68.49
68137;BME280;54939;50.826;9.030;2023-03-19T00:42:01;98358.19;;;11.68;68.63
68137;BME280;54939;50.826;9.030;2023-03-19T00:42:31;98358.38;;;11.66;68.60
68137;BME280;54939;50.826;9.030;2023-03-19T00:43:01;98350.50;;;11.65;68.74
68137;BME280;54939;50.826;9.030;2023-03-19T00:43:32;98356.53;;;11.67;68.60
68137;BME280;54939;50.826;9.030;2023-03-19T00:44:02;98354.69;;;11.67;68.50
68137;BME280;54939;50.826;9.030;2023-03-19T00:44:33;98351.19;;;11.67;68.57
68137;BME280;54939;50.826;9.030;2023-03-19T00:45:03;98349.50;;;11.66;68.41
68137;BME280;54939;50.826;9.030;2023-03-19T00:45:33;98346.66;;;11.67;68.60
68137;BME280;54939;50.826;9.030;2023-03-19T00:46:03;98355.69;;;11.66;68.74
68137;BME280;54939;50.826;9.030;2023-03-19T00:46:34;98350.34;;;11.66;68.47
68137;BME280;54939;50.826;9.030;2023-03-19T00:47:04;98350.34;;;11.66;68.50
68137;BME280;54939;50.826;9.030;2023-03-19T00:47:36;98346.66;;;11.67;68.69
68137;BME280;54939;50.826;9.030;2023-03-19T00:48:06;98351.19;;;11.67;68.61
68137;BME280;54939;50.826;9.030;2023-03-19T00:48:36;98345.84;;;11.67;68.73
68137;BME280;54939;50.826;9.030;2023-03-19T00:49:07;98351.19;;;11.67;68.67
68137;BME280;54939;50.826;9.030;2023-03-19T00:49:37;98350.34;;;11.66;68.51
68137;BME280;54939;50.826;9.030;2023-03-19T00:50:07;98349.34;;;11.67;68.53
68137;BME280;54939;50.826;9.030;2023-03-19T00:50:38;98347.50;;;11.68;68.67
68137;BME280;54939;50.826;9.030;2023-03-19T00:51:08;98350.19;;;11.68;68.75
68137;BME280;54939;50.826;9.030;2023-03-19T00:51:39;98344.00;;;11.67;68.46
68137;BME280;54939;50.826;9.030;2023-03-19T00:52:12;98348.34;;;11.68;68.59
68137;BME280;54939;50.826;9.030;2023-03-19T00:52:42;98349.34;;;11.67;68.64
68137;BME280;54939;50.826;9.030;2023-03-19T00:53:13;98349.34;;;11.67;68.65
68137;BME280;54939;50.826;9.030;2023-03-19T00:53:43;98350.19;;;11.68;68.59
68137;BME280;54939;50.826;9.030;2023-03-19T00:54:13;98358.19;;;11.68;68.57
68137;BME280;54939;50.826;9.030;2023-03-19T00:54:43;98352.03;;;11.67;68.48
68137;BME280;54939;50.826;9.030;2023-03-19T00:55:14;98352.03;;;11.67;68.47
68137;BME280;54939;50.826;9.030;2023-03-19T00:55:44;98353.69;;;11.68;68.52
68137;BME280;54939;50.826;9.030;2023-03-19T00:56:15;98346.66;;;11.67;68.61
68137;BME280;54939;50.826;9.030;2023-03-19T00:56:47;98346.66;;;11.67;68.61
68137;BME280;54939;50.826;9.030;2023-03-19T00:57:17;98347.50;;;11.68;68.67
68137;BME280;54939;50.826;9.030;2023-03-19T00:57:47;98351.03;;;11.68;68.63
68137;BME280;54939;50.826;9.030;2023-03-19T00:58:17;98345.69;;;11.68;68.76
68137;BME280;54939;50.826;9.030;2023-03-19T00:58:47;98345.84;;;11.67;68.83
68137;BME280;54939;50.826;9.030;2023-03-19T00:59:17;98350.19;;;11.68;68.48
68137;BME280;54939;50.826;9.030;2023-03-19T00:59:48;98344.00;;;11.67;68.64
68137;BME280;54939;50.826;9.030;2023-03-19T01:00:18;98344.00;;;11.67;68.69
68137;BME280;54939;50.826;9.030;2023-03-19T01:00:51;98346.66;;;11.67;68.55
68137;BME280;54939;50.826;9.030;2023-03-19T01:01:21;98344.84;;;11.68;68.51
68137;BME280;54939;50.826;9.030;2023-03-19T01:01:51;98341.47;;;11.66;68.58
68137;BME280;54939;50.826;9.030;2023-03-19T01:02:21;98346.66;;;11.67;68.68
68137;BME280;54939;50.826;9.030;2023-03-19T01:02:52;98344.00;;;11.67;68.64
68137;BME280;54939;50.826;9.030;2023-03-19T01:03:22;98339.50;;;11.68;68.70
68137;BME280;54939;50.826;9.030;2023-03-19T01:03:52;98338.66;;;11.67;68.56
68137;BME280;54939;50.826;9.030;2023-03-19T01:04:22;98340.31;;;11.68;68.61
68137;BME280;54939;50.826;9.030;2023-03-19T01:04:52;98341.31;;;11.67;68.46
68137;BME280;54939;50.826;9.030;2023-03-19T01:05:23;98337.66;;;11.68;68.68
68137;BME280;54939;50.826;9.030;2023-03-19T01:05:53;98346.47;;;11.69;68.53
68137;BME280;54939;50.826;9.030;2023-03-19T01:06:23;98339.50;;;11.68;68.62
68137;BME280;54939;50.826;9.030;2023-03-19T01:06:53;98339.50;;;11.68;68.60
68137;BME280;54939;50.826;9.030;2023-03-19T01:07:23;98348.34;;;11.68;68.61
68137;BME280;54939;50.826;9.030;2023-03-19T01:07:53;98344.84;;;11.68;68.54
68137;BME280;54939;50.826;9.030;2023-03-19T01:08:24;98340.47;;;11.67;68.40
68137;BME280;54939;50.826;9.030;2023-03-19T01:08:54;98342.16;;;11.68;68.72
68137;BME280;54939;50.826;9.030;2023-03-19T01:09:24;98344.84;;;11.68;68.49
68137;BME280;54939;50.826;9.030;2023-03-19T01:09:55;98345.69;;;11.68;68.60
68137;BME280;54939;50.826;9.030;2023-03-19T01:10:25;98347.50;;;11.68;68.51
68137;BME280;54939;50.826;9.030;2023-03-19T01:10:55;98342.16;;;11.68;68.73
68137;BME280;54939;50.826;9.030;2023-03-19T01:11:25;98344.84;;;11.68;68.75
68137;BME280;54939;50.826;9.030;2023-03-19T01:11:55;98336.81;;;11.68;68.75
68137;BME280;54939;50.826;9.030;2023-03-19T01:12:26;98340.31;;;11.68;68.45
68137;BME280;54939;50.826;9.030;2023-03-19T01:12:56;98348.34;;;11.68;68.45
68137;BME280;54939;50.826;9.030;2023-03-19T01:13:26;98344.84;;;11.68;68.68
68137;BME280;54939;50.826;9.030;2023-03-19T01:13:56;98343.00;;;11.68;68.71
68137;BME280;54939;50.826;9.030;2023-03-19T01:14:29;98343.00;;;11.68;68.34
68137;BME280;54939;50.826;9.030;2023-03-19T01:14:59;98337.66;;;11.68;68.87
68137;BME280;54939;50.826;9.030;2023-03-19T01:15:30;98341.13;;;11.69;68.57
68137;BME280;54939;50.826;9.030;2023-03-19T01:16:00;98337.66;;;11.68;68.61
68137;BME280;54939;50.826;9.030;2023-03-19T01:16:31;98346.47;;;11.69;68.62
68137;BME280;54939;50.826;9.030;2023-03-19T01:17:03;98345.69;;;11.68;68.70
68137;BME280;54939;50.826;9.030;2023-03-19T01:17:33;98342.16;;;11.68;68.60
68137;BME280;54939;50.826;9.030;2023-03-19T01:18:04;98345.69;;;11.68;68.49
68137;BME280;54939;50.826;9.030;2023-03-19T01:18:34;98348.34;;;11.68;68.37
68137;BME280;54939;50.826;9.030;2023-03-19T01:19:04;98342.16;;;11.68;68.59
68137;BME280;54939;50.826;9.030;2023-03-19T01:19:35;98348.34;;;11.68;68.60
68137;BME280;54939;50.826;9.030;2023-03-19T01:20:05;98341.13;;;11.69;68.65
68137;BME280;54939;50.826;9.030;2023-03-19T01:20:41;98351.81;;;11.69;68.80
68137;BME280;54939;50.826;9.030;2023-03-19T01:21:11;98350.81;;;11.70;68.54
68137;BME280;54939;50.826;9.030;2023-03-19T01:21:42;98348.34;;;11.68;68.52
68137;BME280;54939;50.826;9.030;2023-03-19T01:22:15;98353.69;;;11.68;68.69
68137;BME280;54939;50.826;9.030;2023-03-19T01:22:46;98345.69;;;11.68;68.69
68137;BME280;54939;50.826;9.030;2023-03-19T01:23:16;98352.66;;;11.69;68.74
68137;BME280;54939;50.826;9.030;2023-03-19T01:23:46;98356.16;;;11.70;68.47
68137;BME280;54939;50.826;9.030;2023-03-19T01:24:17;98350.00;;;11.69;68.58
68137;BME280;54939;50.826;9.030;2023-03-19T01:24:47;98351.03;;;11.68;68.60
68137;BME280;54939;50.826;9.030;2023-03-19T01:25:17;98346.47;;;11.69;68.70
68137;BME280;54939;50.826;9.030;2023-03-19T01:25:47;98355.34;;;11.69;68.70
68137;BME280;54939;50.826;9.030;2023-03-19T01:26:17;98343.81;;;11.69;68.71
68137;BME280;54939;50.826;9.030;2023-03-19T01:26:48;98342.81;;;11.70;68.64
68137;BME280;54939;50.826;9.030;2023-03-19T01:27:18;98349.16;;;11.69;68.71
68137;BME280;54939;50.826;9.030;2023-03-19T01:27:51;98343.81;;;11.69;68.52
68137;BME280;54939;50.826;9.030;2023-03-19T01:28:22;98346.47;;;11.69;68.50
68137;BME280;54939;50.826;9.030;2023-03-19T01:28:52;98343.81;;;11.69;68.42
68137;BME280;54939;50.826;9.030;2023-03-19T01:29:22;98349.16;;;11.69;68.57
68137;BME280;54939;50.826;9.030;2023-03-19T01:29:52;98348.34;;;11.68;68.48
68137;BME280;54939;50.826;9.030;2023-03-19T01:30:22;98344.63;;;11.69;68.45
68137;BME280;54939;50.826;9.030;2023-03-19T01:30:56;98344.63;;;11.69;68.54
68137;BME280;54939;50.826;9.030;2023-03-19T01:31:26;98345.47;;;11.70;68.57
68137;BME280;54939;50.826;9.030;2023-03-19T01:31:57;98345.69;;;11.68;68.58
68137;BME280;54939;50.826;9.030;2023-03-19T01:32:27;98348.16;;;11.70;68.70
68137;BME280;54939;50.826;9.030;2023-03-19T01:32:57;98344.63;;;11.69;68.27
68137;BME280;54939;50.826;9.030;2023-03-19T01:33:27;98350.00;;;11.69;68.67
68137;BME280;54939;50.826;9.030;2023-03-19T01:33:57;98352.66;;;11.69;68.63
68137;BME280;54939;50.826;9.030;2023-03-19T01:34:28;98347.31;;;11.69;68.73
68137;BME280;54939;50.826;9.030;2023-03-19T01:34:58;98348.16;;;11.70;68.45
68137;BME280;54939;50.826;9.030;2023-03-19T01:35:31;98355.34;;;11.69;68.48
68137;BME280;54939;50.826;9.030;2023-03-19T01:36:01;98346.47;;;11.69;68.67
68137;BME280;54939;50.826;9.030;2023-03-19T01:36:33;98345.47;;;11.70;68.59
68137;BME280;54939;50.826;9.030;2023-03-19T01:37:03;98345.47;;;11.70;68.63
68137;BME280;54939;50.826;9.030;2023-03-19T01:37:34;98348.34;;;11.68;68.67
68137;BME280;54939;50.826;9.030;2023-03-19T01:38:04;98345.47;;;11.70;68.59
68137;BME280;54939;50.826;9.030;2023-03-19T01:38:35;98344.63;;;11.69;68.57
68137;BME280;54939;50.826;9.030;2023-03-19T01:39:05;98347.31;;;11.69;68.39
68137;BME280;54939;50.826;9.030;2023-03-19T01:39:35;98341.13;;;11.69;68.58
68137;BME280;54939;50.826;9.030;2023-03-19T01:40:06;98343.81;;;11.69;68.50
68137;BME280;54939;50.826;9.030;2023-03-19T01:40:42;98350.00;;;11.69;68.46
68137;BME280;54939;50.826;9.030;2023-03-19T01:41:12;98347.31;;;11.69;68.43
68137;BME280;54939;50.826;9.030;2023-03-19T01:41:43;98346.47;;;11.69;68.33
68137;BME280;54939;50.826;9.030;2023-03-19T01:42:13;98343.81;;;11.69;68.49
68137;BME280;54939;50.826;9.030;2023-03-19T01:42:50;98342.81;;;11.70;68.43
68137;BME280;54939;50.826;9.030;2023-03-19T01:43:21;98347.31;;;11.69;68.64
68137;BME280;54939;50.826;9.030;2023-03-19T01:43:52;98345.47;;;11.70;68.63
68137;BME280;54939;50.826;9.030;2023-03-19T01:44:26;98345.47;;;11.70;68.68
68137;BME280;54939;50.826;9.030;2023-03-19T01:44:57;98345.47;;;11.70;68.69
68137;BME280;54939;50.826;9.030;2023-03-19T01:45:31;98347.31;;;11.69;68.65
68137;BME280;54939;50.826;9.030;2023-03-19T01:46:13;98342.81;;;11.70;68.61
68137;BME280;54939;50.826;9.030;2023-03-19T01:46:45;98347.31;;;11.69;68.55
68137;BME280;54939;50.826;9.030;2023-03-19T01:47:16;98345.47;;;11.70;68.41
68137;BME280;54939;50.826;9.030;2023-03-19T01:47:48;98343.81;;;11.69;68.66
68137;BME280;54939;50.826;9.030;2023-03-19T01:48:19;98343.66;;;11.70;68.66
68137;BME280;54939;50.826;9.030;2023-03-19T01:48:52;98344.63;;;11.69;68.69
68137;BME280;54939;50.826;9.030;2023-03-19T01:49:24;98342.81;;;11.70;68.57
68137;BME280;54939;50.826;9.030;2023-03-19T01:49:55;98342.81;;;11.70;68.66
68137;BME280;54939;50.826;9.030;2023-03-19T01:50:26;98337.47;;;11.70;68.63
68137;BME280;54939;50.826;9.030;2023-03-19T01:50:57;98339.28;;;11.69;68.44
68137;BME280;54939;50.826;9.030;2023-03-19T01:51:29;98344.63;;;11.69;68.75
68137;BME280;54939;50.826;9.030;2023-03-19T01:52:01;98336.81;;;11.68;68.43
68137;BME280;54939;50.826;9.030;2023-03-19T01:52:32;98347.31;;;11.69;68.79
68137;BME280;54939;50.826;9.030;2023-03-19T01:53:03;98342.81;;;11.70;68.61
68137;BME280;54939;50.826;9.030;2023-03-19T01:53:33;98342.81;;;11.70;68.60
68137;BME280;54939;50.826;9.030;2023-03-19T01:54:06;98340.31;;;11.68;68.43
68137;BME280;54939;50.826;9.030;2023-03-19T01:54:38;98343.81;;;11.69;68.67
68137;BME280;54939;50.826;9.030;2023-03-19T01:55:09;98337.66;;;11.68;68.50
68137;BME280;54939;50.826;9.030;2023-03-19T01:55:40;98347.31;;;11.69;68.61
68137;BME280;54939;50.826;9.030;2023-03-19T01:56:41;98339.28;;;11.69;68.63
68137;BME280;54939;50.826;9.030;2023-03-19T01:57:12;98347.31;;;11.69;68.87
68137;BME280;54939;50.826;9.030;2023-03-19T01:57:43;98341.97;;;11.69;68.50
68137;BME280;54939;50.826;9.030;2023-03-19T01:58:13;98340.13;;;11.70;68.33
68137;BME280;54939;50.826;9.030;2023-03-19T01:58:45;98341.97;;;11.69;68.37
68137;BME280;54939;50.826;9.030;2023-03-19T01:59:49;98339.28;;;11.69;68.71
68137;BME280;54939;50.826;9.030;2023-03-19T02:00:12;98345.69;;;11.68;68.68
68137;BME280;54939;50.826;9.030;2023-03-19T02:00:43;98341.97;;;11.69;68.48
68137;BME280;54939;50.826;9.030;2023-03-19T02:01:14;98339.28;;;11.69;68.71
68137;BME280;54939;50.826;9.030;2023-03-19T02:01:49;98339.28;;;11.69;68.44
68137;BME280;54939;50.826;9.030;2023-03-19T02:02:23;98341.97;;;11.69;68.49
68137;BME280;54939;50.826;9.030;2023-03-19T02:02:57;98339.28;;;11.69;68.46
68137;BME280;54939;50.826;9.030;2023-03-19T02:03:28;98337.66;;;11.68;68.49
68137;BME280;54939;50.826;9.030;2023-03-19T02:03:59;98340.13;;;11.70;68.64
68137;BME280;54939;50.826;9.030;2023-03-19T02:04:30;98339.28;;;11.69;68.52
68137;BME280;54939;50.826;9.030;2023-03-19T02:05:05;98334.78;;;11.70;68.66
68137;BME280;54939;50.826;9.030;2023-03-19T02:05:36;98340.13;;;11.70;68.61
68137;BME280;54939;50.826;9.030;2023-03-19T02:06:07;98342.81;;;11.70;68.59
68137;BME280;54939;50.826;9.030;2023-03-19T02:06:40;98338.28;;;11.70;68.70
68137;BME280;54939;50.826;9.030;2023-03-19T02:07:12;98337.47;;;11.70;68.42
68137;BME280;54939;50.826;9.030;2023-03-19T02:07:43;98343.66;;;11.70;68.57
68137;BME280;54939;50.826;9.030;2023-03-19T02:08:14;98347.31;;;11.69;68.44
68137;BME280;54939;50.826;9.030;2023-03-19T02:08:45;98340.13;;;11.70;68.50
68137;BME280;54939;50.826;9.030;2023-03-19T02:09:18;98346.31;;;11.70;68.66
68137;BME280;54939;50.826;9.030;2023-03-19T02:09:49;98343.66;;;11.70;68.65
68137;BME280;54939;50.826;9.030;2023-03-19T02:10:20;98343.66;;;11.70;68.74
68137;BME280;54939;50.826;9.030;2023-03-19T02:10:51;98344.47;;;11.71;68.60
68137;BME280;54939;50.826;9.030;2023-03-19T02:11:24;98347.16;;;11.71;68.52
68137;BME280;54939;50.826;9.030;2023-03-19T02:11:58;98338.28;;;11.70;68.47
68137;BME280;54939;50.826;9.030;2023-03-19T02:12:28;98340.97;;;11.70;68.37
68137;BME280;54939;50.826;9.030;2023-03-19T02:12:58;98343.66;;;11.70;68.42
68137;BME280;54939;50.826;9.030;2023-03-19T02:13:29;98338.28;;;11.70;68.36
68137;BME280;54939;50.826;9.030;2023-03-19T02:13:59;98340.97;;;11.70;68.58
68137;BME280;54939;50.826;9.030;2023-03-19T02:14:29;98347.16;;;11.71;68.52
68137;BME280;54939;50.826;9.030;2023-03-19T02:14:59;98346.31;;;11.70;68.62
68137;BME280;54939;50.826;9.030;2023-03-19T02:15:30;98343.66;;;11.70;68.46
68137;BME280;54939;50.826;9.030;2023-03-19T02:16:00;98340.13;;;11.70;68.52
68137;BME280;54939;50.826;9.030;2023-03-19T02:16:30;98340.97;;;11.70;68.56
68137;BME280;54939;50.826;9.030;2023-03-19T02:17:01;98337.47;;;11.70;68.78
68137;BME280;54939;50.826;9.030;2023-03-19T02:17:31;98340.13;;;11.70;68.75
68137;BME280;54939;50.826;9.030;2023-03-19T02:18:02;98342.81;;;11.70;68.79
68137;BME280;54939;50.826;9.030;2023-03-19T02:18:34;98350.81;;;11.70;68.48
68137;BME280;54939;50.826;9.030;2023-03-19T02:19:06;98346.31;;;11.70;68.50
68137;BME280;54939;50.826;9.030;2023-03-19T02:21:17;98340.13;;;11.70;68.60
68137;BME280;54939;50.826;9.030;2023-03-19T02:21:48;98345.47;;;11.70;68.38
68137;BME280;54939;50.826;9.030;2023-03-19T02:22:20;98342.81;;;11.70;68.67
68137;BME280;54939;50.826;9.030;2023-03-19T02:22:55;98345.47;;;11.70;68.83
68137;BME280;54939;50.826;9.030;2023-03-19T02:24:05;98348.16;;;11.70;68.48
68137;BME280;54939;50.826;9.030;2023-03-19T02:24:38;98349.00;;;11.70;68.76
68137;BME280;54939;50.826;9.030;2023-03-19T02:25:12;98344.63;;;11.69;68.54
68137;BME280;54939;50.826;9.030;2023-03-19T02:26:16;98346.47;;;11.69;68.71
68137;BME280;54939;50.826;9.030;2023-03-19T02:26:47;98346.47;;;11.69;68.47
68137;BME280;54939;50.826;9.030;2023-03-19T02:27:19;98346.47;;;11.69;68.49
68137;BME280;54939;50.826;9.030;2023-03-19T02:27:49;98345.47;;;11.70;68.48
68137;BME280;54939;50.826;9.030;2023-03-19T02:28:21;98350.81;;;11.70;68.53
68137;BME280;54939;50.826;9.030;2023-03-19T02:28:52;98341.13;;;11.69;68.55
68137;BME280;54939;50.826;9.030;2023-03-19T02:29:22;98346.47;;;11.69;68.68
68137;BME280;54939;50.826;9.030;2023-03-19T02:29:52;98345.69;;;11.68;68.68
68137;BME280;54939;50.826;9.030;2023-03-19T02:30:24;98347.31;;;11.69;68.43
68137;BME280;54939;50.826;9.030;2023-03-19T02:30:58;98349.16;;;11.69;68.36
68137;BME280;54939;50.826;9.030;2023-03-19T02:31:28;98354.50;;;11.69;68.50
68137;BME280;54939;50.826;9.030;2023-03-19T02:31:58;98350.00;;;11.69;68.39
68137;BME280;54939;50.826;9.030;2023-03-19T02:32:29;98355.34;;;11.69;68.74
68137;BME280;54939;50.826;9.030;2023-03-19T02:32:59;98356.16;;;11.70;68.65
68137;BME280;54939;50.826;9.030;2023-03-19T02:33:29;98354.34;;;11.70;68.43
68137;BME280;54939;50.826;9.030;2023-03-19T02:34:01;98346.47;;;11.69;68.51
68137;BME280;54939;50.826;9.030;2023-03-19T02:34:33;98356.16;;;11.70;68.80
68137;BME280;54939;50.826;9.030;2023-03-19T02:35:04;98351.66;;;11.70;68.37
68137;BME280;54939;50.826;9.030;2023-03-19T02:35:35;98358.84;;;11.70;68.50
68137;BME280;54939;50.826;9.030;2023-03-19T02:36:08;98350.19;;;11.68;68.71
68137;BME280;54939;50.826;9.030;2023-03-19T02:36:43;98356.16;;;11.70;68.24
68137;BME280;54939;50.826;9.030;2023-03-19T02:37:16;98356.16;;;11.70;68.72
68137;BME280;54939;50.826;9.030;2023-03-19T02:37:48;98359.69;;;11.70;68.41
68137;BME280;54939;50.826;9.030;2023-03-19T02:38:18;98361.53;;;11.70;68.72
68137;BME280;54939;50.826;9.030;2023-03-19T02:38:51;98363.19;;;11.71;68.71
68137;BME280;54939;50.826;9.030;2023-03-19T02:39:28;98361.53;;;11.70;68.39
68137;BME280;54939;50.826;9.030;2023-03-19T02:40:05;98366.88;;;11.70;68.49
68137;BME280;54939;50.826;9.030;2023-03-19T02:40:37;98366.88;;;11.70;68.71
68137;BME280;54939;50.826;9.030;2023-03-19T02:41:10;98367.88;;;11.69;68.70
68137;BME280;54939;50.826;9.030;2023-03-19T02:41:41;98371.38;;;11.69;68.52
68137;BME280;54939;50.826;9.030;2023-03-19T02:42:12;98366.88;;;11.70;68.56
68137;BME280;54939;50.826;9.030;2023-03-19T02:42:43;98364.19;;;11.70;68.62
68137;BME280;54939;50.826;9.030;2023-03-19T02:43:13;98360.69;;;11.69;68.52
68137;BME280;54939;50.826;9.030;2023-03-19T02:43:44;98361.53;;;11.70;68.51
68137;BME280;54939;50.826;9.030;2023-03-19T02:44:14;98361.53;;;11.70;68.65
68137;BME280;54939;50.826;9.030;2023-03-19T02:44:48;98367.72;;;11.70;68.71
68137;BME280;54939;50.826;9.030;2023-03-19T02:45:22;98361.53;;;11.70;68.64
68137;BME280;54939;50.826;9.030;2023-03-19T02:45:56;98373.06;;;11.70;68.66
68137;BME280;54939;50.826;9.030;2023-03-19T02:46:27;98356.00;;;11.63;68.71
68137;BME280;54939;50.826;9.030;2023-03-19T02:46:58;98366.03;;;11.69;68.48
68137;BME280;54939;50.826;9.030;2023-03-19T02:47:28;98361.53;;;11.70;68.74
68137;BME280;54939;50.826;9.030;2023-03-19T02:47:58;98358.84;;;11.70;68.54